createdAt,value
2023-08-11T00:00:22.671Z,100875.19
2023-08-11T00:00:54.821Z,100875.75
2023-08-11T00:01:26.853Z,100876.41
2023-08-11T00:01:58.778Z,100881.00
2023-08-11T00:02:31.061Z,100875.34
2023-08-11T00:03:03.238Z,100879.97
2023-08-11T00:03:35.679Z,100874.72
2023-08-11T00:04:07.763Z,100874.91
2023-08-11T00:04:39.676Z,100873.44
2023-08-11T00:05:12.661Z,100869.03
2023-08-11T00:05:44.610Z,100875.75
2023-08-11T00:06:17.660Z,100879.50
2023-08-11T00:06:49.680Z,100878.09
2023-08-11T00:07:21.586Z,100882.69
2023-08-11T00:07:55.507Z,100884.75
2023-08-11T00:08:27.510Z,100878.47
2023-08-11T00:09:00.302Z,100879.50
2023-08-11T00:09:32.411Z,100879.72
2023-08-11T00:10:06.051Z,100888.06
2023-08-11T00:10:37.988Z,100883.47
2023-08-11T00:11:12.542Z,100882.63
2023-08-11T00:11:44.467Z,100880.13
2023-08-11T00:12:16.410Z,100880.13
2023-08-11T00:12:49.037Z,100885.13
2023-08-11T00:13:20.970Z,100881.16
2023-08-11T00:13:53.148Z,100880.94
2023-08-11T00:14:25.221Z,100881.78
2023-08-11T00:14:57.457Z,100890.56
2023-08-11T00:15:32.188Z,100887.44
2023-08-11T00:16:04.686Z,100886.81
2023-08-11T00:16:36.705Z,100883.47
2023-08-11T00:17:08.965Z,100882.63
2023-08-11T00:17:42.111Z,100890.78
2023-08-11T00:18:14.103Z,100883.47
2023-08-11T00:18:46.903Z,100887.81
2023-08-11T00:19:18.945Z,100895.13
2023-08-11T00:19:50.895Z,100884.06
2023-08-11T00:20:22.830Z,100885.09
2023-08-11T00:20:54.742Z,100885.53
2023-08-11T00:21:27.846Z,100891.00
2023-08-11T00:21:59.836Z,100892.88
2023-08-11T00:22:31.745Z,100892.22
2023-08-11T00:23:07.861Z,100892.41
2023-08-11T00:23:41.025Z,100893.06
2023-08-11T00:24:13.010Z,100888.84
2023-08-11T00:24:45.061Z,100895.13
2023-08-11T00:25:17.421Z,100892.59
2023-08-11T00:25:49.341Z,100895.75
2023-08-11T00:26:21.268Z,100893.44
2023-08-11T00:26:53.397Z,100893.00
2023-08-11T00:27:25.373Z,100891.94
2023-08-11T00:27:57.297Z,100893.44
2023-08-11T00:28:29.253Z,100897.19
2023-08-11T00:29:01.567Z,100888.19
2023-08-11T00:29:33.608Z,100895.09
2023-08-11T00:30:06.686Z,100893.63
2023-08-11T00:30:38.597Z,100892.34
2023-08-11T00:31:10.592Z,100888.81
2023-08-11T00:31:43.210Z,100893.59
2023-08-11T00:32:15.305Z,100889.22
2023-08-11T00:32:47.383Z,100888.38
2023-08-11T00:33:20.148Z,100890.03
2023-08-11T00:33:53.058Z,100892.34
2023-08-11T00:34:24.992Z,100893.00
2023-08-11T00:34:56.918Z,100890.69
2023-08-11T00:35:29.359Z,100887.13
2023-08-11T00:36:01.338Z,100894.44
2023-08-11T00:36:33.255Z,100892.97
2023-08-11T00:37:05.659Z,100894.19
2023-08-11T00:37:37.869Z,100883.75
2023-08-11T00:38:09.809Z,100885.25
2023-08-11T00:38:42.398Z,100887.53
2023-08-11T00:39:14.485Z,100888.16
2023-08-11T00:39:47.044Z,100884.59
2023-08-11T00:40:19.269Z,100886.28
2023-08-11T00:40:53.042Z,100884.59
2023-08-11T00:41:24.980Z,100890.88
2023-08-11T00:41:56.930Z,100886.50
2023-08-11T00:42:28.851Z,100891.66
2023-08-11T00:43:00.778Z,100885.19
2023-08-11T00:43:32.959Z,100888.53
2023-08-11T00:44:05.219Z,100882.94
2023-08-11T00:44:37.121Z,100882.25
2023-08-11T00:45:10.167Z,100886.66
2023-08-11T00:45:46.396Z,100879.94
2023-08-11T00:46:21.649Z,100887.53
2023-08-11T00:46:54.254Z,100882.09
2023-08-11T00:47:27.193Z,100887.53
2023-08-11T00:47:59.152Z,100887.53
2023-08-11T00:48:31.147Z,100887.69
2023-08-11T00:49:03.095Z,100889.56
2023-08-11T00:49:35.466Z,100888.31
2023-08-11T00:50:08.252Z,100885.78
2023-08-11T00:50:41.400Z,100888.72
2023-08-11T00:51:16.051Z,100887.88
2023-08-11T00:51:47.991Z,100890.19
2023-08-11T00:52:20.687Z,100882.03
2023-08-11T00:52:52.721Z,100888.31
2023-08-11T00:53:26.033Z,100893.94
2023-08-11T00:53:59.124Z,100885.38
2023-08-11T00:54:31.494Z,100885.38
2023-08-11T00:55:03.718Z,100893.13
2023-08-11T00:55:35.720Z,100889.16
2023-08-11T00:56:08.639Z,100894.59
2023-08-11T00:56:45.860Z,100890.81
2023-08-11T00:57:17.777Z,100893.53
2023-08-11T00:57:49.722Z,100896.06
2023-08-11T00:58:21.760Z,100897.75
2023-08-11T00:58:54.306Z,100895.22
2023-08-11T00:59:27.043Z,100899.63
2023-08-11T01:00:00.779Z,100897.31
2023-08-11T01:00:32.888Z,100895.63
2023-08-11T01:01:05.705Z,100894.59
2023-08-11T01:01:37.681Z,100896.25
2023-08-11T01:02:11.718Z,100892.91
2023-08-11T01:02:45.465Z,100895.22
2023-08-11T01:03:18.605Z,100897.94
2023-08-11T01:03:51.719Z,100900.88
2023-08-11T01:04:23.671Z,100891.22
2023-08-11T01:04:55.882Z,100895.00
2023-08-11T01:05:32.036Z,100896.66
2023-08-11T01:06:23.857Z,100899.38
2023-08-11T01:07:32.974Z,100902.13
2023-08-11T01:08:31.442Z,100890.38
2023-08-11T01:09:13.031Z,100896.66
2023-08-11T01:10:07.870Z,100896.66
2023-08-11T01:10:52.575Z,100893.50
2023-08-11T01:11:53.308Z,100898.75
2023-08-11T01:12:58.635Z,100905.03
2023-08-11T01:13:31.064Z,100893.31
2023-08-11T01:14:07.691Z,100894.75
2023-08-11T01:14:59.851Z,100897.03
2023-08-11T01:15:36.769Z,100891.97
2023-08-11T01:16:09.515Z,100900.97
2023-08-11T01:16:42.076Z,100894.06
2023-08-11T01:17:15.930Z,100899.91
2023-08-11T01:17:49.921Z,100895.09
2023-08-11T01:18:23.812Z,100897.81
2023-08-11T01:18:56.254Z,100889.44
2023-08-11T01:19:29.851Z,100893.63
2023-08-11T01:20:02.366Z,100892.34
2023-08-11T01:20:36.146Z,100898.19
2023-08-11T01:21:12.172Z,100890.66
2023-08-11T01:21:46.658Z,100900.06
2023-08-11T01:22:21.050Z,100896.31
2023-08-11T01:22:56.641Z,100902.59
2023-08-11T01:23:28.708Z,100897.16
2023-08-11T01:24:01.825Z,100902.34
2023-08-11T01:24:33.845Z,100893.50
2023-08-11T01:25:09.659Z,100898.97
2023-08-11T01:25:41.942Z,100895.22
2023-08-11T01:26:14.997Z,100895.22
2023-08-11T01:26:47.659Z,100899.44
2023-08-11T01:27:19.611Z,100891.84
2023-08-11T01:27:55.465Z,100898.97
2023-08-11T01:28:28.325Z,100896.44
2023-08-11T01:29:01.098Z,100895.59
2023-08-11T01:29:33.109Z,100894.97
2023-08-11T01:30:07.809Z,100891.19
2023-08-11T01:30:39.916Z,100896.00
2023-08-11T01:31:12.311Z,100895.16
2023-08-11T01:31:44.355Z,100887.63
2023-08-11T01:32:16.565Z,100891.81
2023-08-11T01:32:48.548Z,100892.84
2023-08-11T01:33:20.479Z,100891.16
2023-08-11T01:33:52.383Z,100891.34
2023-08-11T01:34:24.351Z,100889.69
2023-08-11T01:34:56.268Z,100890.06
2023-08-11T01:35:39.050Z,100884.00
2023-08-11T01:36:12.984Z,100889.03
2023-08-11T01:36:44.974Z,100886.97
2023-08-11T01:37:16.885Z,100889.25
2023-08-11T01:37:49.230Z,100890.28
2023-08-11T01:38:22.166Z,100887.75
2023-08-11T01:38:54.209Z,100892.53
2023-08-11T01:39:26.148Z,100887.50
2023-08-11T01:39:58.081Z,100887.09
2023-08-11T01:40:30.353Z,100893.19
2023-08-11T01:41:02.265Z,100893.75
2023-08-11T01:41:34.172Z,100891.88
2023-08-11T01:42:07.044Z,100889.56
2023-08-11T01:42:46.785Z,100890.84
2023-08-11T01:43:28.386Z,100888.78
2023-08-11T01:44:00.885Z,100895.91
2023-08-11T01:44:34.223Z,100895.72
2023-08-11T01:45:07.420Z,100898.78
2023-08-11T01:45:40.088Z,100889.81
2023-08-11T01:46:12.809Z,100895.25
2023-08-11T01:46:46.226Z,100889.16
2023-08-11T01:47:19.630Z,100897.31
2023-08-11T01:47:52.367Z,100891.88
2023-08-11T01:48:24.766Z,100889.16
2023-08-11T01:48:57.848Z,100889.16
2023-08-11T01:49:30.415Z,100884.97
2023-08-11T01:50:03.795Z,100887.50
2023-08-11T01:50:36.093Z,100882.44
2023-08-11T01:51:08.593Z,100889.75
2023-08-11T01:51:41.246Z,100884.53
2023-08-11T01:52:14.157Z,100897.06
2023-08-11T01:52:48.841Z,100893.13
2023-08-11T01:53:20.869Z,100892.09
2023-08-11T01:53:52.865Z,100889.38
2023-08-11T01:54:24.866Z,100883.28
2023-08-11T01:54:56.802Z,100889.56
2023-08-11T01:55:30.325Z,100895.00
2023-08-11T01:56:02.617Z,100893.72
2023-08-11T01:56:34.568Z,100889.31
2023-08-11T01:57:06.991Z,100890.81
2023-08-11T01:57:48.485Z,100884.31
2023-08-11T01:58:28.779Z,100883.50
2023-08-11T01:59:03.580Z,100888.28
2023-08-11T01:59:36.094Z,100889.13
2023-08-11T02:00:14.570Z,100896.88
2023-08-11T02:00:46.485Z,100890.84
2023-08-11T02:01:18.425Z,100896.09
2023-08-11T02:01:50.406Z,100892.53
2023-08-11T02:02:22.831Z,100891.31
2023-08-11T02:02:55.029Z,100901.59
2023-08-11T02:03:27.239Z,100896.16
2023-08-11T02:03:59.417Z,100891.13
2023-08-11T02:04:31.370Z,100895.31
2023-08-11T02:05:04.598Z,100898.88
2023-08-11T02:05:36.515Z,100897.19
2023-08-11T02:06:08.430Z,100898.03
2023-08-11T02:06:40.799Z,100896.34
2023-08-11T02:07:12.773Z,100894.69
2023-08-11T02:07:46.155Z,100898.88
2023-08-11T02:08:19.310Z,100903.47
2023-08-11T02:08:51.222Z,100896.34
2023-08-11T02:09:23.146Z,100896.75
2023-08-11T02:09:55.788Z,100895.72
2023-08-11T02:10:27.696Z,100898.22
2023-08-11T02:10:59.671Z,100898.88
2023-08-11T02:11:31.704Z,100899.50
2023-08-11T02:12:04.034Z,100897.00
2023-08-11T02:12:37.640Z,100901.19
2023-08-11T02:13:10.311Z,100902.63
2023-08-11T02:13:42.295Z,100905.53
2023-08-11T02:14:14.207Z,100899.91
2023-08-11T02:14:46.106Z,100898.88
2023-08-11T02:15:18.028Z,100897.63
2023-08-11T02:15:50.010Z,100906.00
2023-08-11T02:16:21.986Z,100900.94
2023-08-11T02:16:53.893Z,100904.72
2023-08-11T02:17:25.829Z,100900.31
2023-08-11T02:17:57.778Z,100906.38
2023-08-11T02:18:29.904Z,100902.00
2023-08-11T02:19:01.823Z,100905.53
2023-08-11T02:19:33.813Z,100904.72
2023-08-11T02:20:25.332Z,100907.44
2023-08-11T02:20:57.578Z,100909.22
2023-08-11T02:21:29.852Z,100904.81
2023-08-11T02:22:01.743Z,100900.88
2023-08-11T02:22:33.649Z,100900.69
2023-08-11T02:23:05.559Z,100905.75
2023-08-11T02:23:37.536Z,100907.44
2023-08-11T02:24:09.494Z,100906.38
2023-08-11T02:24:41.408Z,100907.44
2023-08-11T02:25:13.628Z,100910.59
2023-08-11T02:25:45.602Z,100906.81
2023-08-11T02:26:17.533Z,100903.91
2023-08-11T02:26:49.476Z,100907.66
2023-08-11T02:27:21.433Z,100900.56
2023-08-11T02:27:54.180Z,100901.78
2023-08-11T02:28:26.479Z,100909.09
2023-08-11T02:28:58.372Z,100897.41
2023-08-11T02:29:30.317Z,100907.22
2023-08-11T02:30:03.189Z,100901.59
2023-08-11T02:30:35.180Z,100900.94
2023-08-11T02:31:09.181Z,100903.66
2023-08-11T02:31:41.122Z,100902.34
2023-08-11T02:32:13.088Z,100905.75
2023-08-11T02:32:47.702Z,100900.69
2023-08-11T02:33:19.939Z,100896.28
2023-08-11T02:33:52.056Z,100902.56
2023-08-11T02:34:24.035Z,100902.19
2023-08-11T02:34:56.262Z,100902.00
2023-08-11T02:35:28.270Z,100903.03
2023-08-11T02:36:00.176Z,100901.72
2023-08-11T02:36:32.088Z,100899.63
2023-08-11T02:37:04.219Z,100900.69
2023-08-11T02:37:36.126Z,100903.41
2023-08-11T02:38:08.257Z,100899.00
2023-08-11T02:38:40.298Z,100899.63
2023-08-11T02:39:12.209Z,100901.34
2023-08-11T02:39:45.392Z,100901.50
2023-08-11T02:40:21.438Z,100897.78
2023-08-11T02:40:53.559Z,100903.41
2023-08-11T02:41:27.115Z,100902.13
2023-08-11T02:41:59.045Z,100904.81
2023-08-11T02:42:31.191Z,100907.75
2023-08-11T02:43:03.556Z,100909.63
2023-08-11T02:43:38.446Z,100896.69
2023-08-11T02:44:10.480Z,100904.00
2023-08-11T02:44:42.389Z,100896.88
2023-08-11T02:45:14.372Z,100904.00
2023-08-11T02:45:47.759Z,100899.59
2023-08-11T02:46:19.814Z,100904.19
2023-08-11T02:46:51.779Z,100898.31
2023-08-11T02:47:23.691Z,100899.75
2023-08-11T02:47:55.904Z,100899.53
2023-08-11T02:48:27.837Z,100898.94
2023-08-11T02:48:59.744Z,100908.34
2023-08-11T02:49:31.669Z,100900.59
2023-08-11T02:50:06.908Z,100900.00
2023-08-11T02:50:38.958Z,100902.72
2023-08-11T02:51:10.897Z,100897.28
2023-08-11T02:51:42.819Z,100903.94
2023-08-11T02:52:14.778Z,100902.91
2023-08-11T02:52:46.675Z,100903.75
2023-08-11T02:53:18.569Z,100902.91
2023-08-11T02:53:50.771Z,100900.19
2023-08-11T02:54:22.716Z,100906.25
2023-08-11T02:54:55.011Z,100902.06
2023-08-11T02:55:26.968Z,100906.66
2023-08-11T02:56:02.210Z,100895.16
2023-08-11T02:56:34.122Z,100903.31
2023-08-11T02:57:07.083Z,100899.94
2023-08-11T02:57:39.045Z,100911.53
2023-08-11T02:58:11.757Z,100905.00
2023-08-11T02:58:44.154Z,100910.25
2023-08-11T02:59:16.270Z,100905.25
2023-08-11T02:59:50.413Z,100911.38
2023-08-11T03:00:22.338Z,100911.53
2023-08-11T03:00:54.241Z,100914.25
2023-08-11T03:01:26.373Z,100906.09
2023-08-11T03:01:58.332Z,100906.78
2023-08-11T03:02:30.380Z,100914.94
2023-08-11T03:03:02.683Z,100914.94
2023-08-11T03:03:34.936Z,100907.81
2023-08-11T03:04:07.329Z,100918.69
2023-08-11T03:04:39.268Z,100912.41
2023-08-11T03:05:11.460Z,100912.13
2023-08-11T03:05:44.534Z,100915.88
2023-08-11T03:06:16.450Z,100912.97
2023-08-11T03:06:49.040Z,100911.94
2023-08-11T03:07:20.969Z,100912.56
2023-08-11T03:07:53.093Z,100915.69
2023-08-11T03:08:25.615Z,100921.13
2023-08-11T03:08:58.715Z,100922.94
2023-08-11T03:09:30.612Z,100915.19
2023-08-11T03:10:02.582Z,100911.63
2023-08-11T03:10:46.674Z,100921.81
2023-08-11T03:11:26.484Z,100917.16
2023-08-11T03:11:58.624Z,100914.84
2023-08-11T03:12:30.533Z,100925.50
2023-08-11T03:13:02.436Z,100923.84
2023-08-11T03:13:34.372Z,100923.84
2023-08-11T03:14:06.330Z,100927.84
2023-08-11T03:14:38.374Z,100923.44
2023-08-11T03:15:10.553Z,100922.41
2023-08-11T03:15:42.787Z,100925.75
2023-08-11T03:16:14.858Z,100920.53
2023-08-11T03:16:46.845Z,100916.31
2023-08-11T03:17:18.754Z,100923.44
2023-08-11T03:17:50.689Z,100920.91
2023-08-11T03:18:22.903Z,100924.03
2023-08-11T03:18:55.157Z,100918.22
2023-08-11T03:19:27.051Z,100925.06
2023-08-11T03:19:59.047Z,100920.47
2023-08-11T03:20:30.992Z,100924.22
2023-08-11T03:21:18.867Z,100922.16
2023-08-11T03:21:51.519Z,100923.00
2023-08-11T03:22:23.459Z,100923.00
2023-08-11T03:22:55.381Z,100918.59
2023-08-11T03:23:28.886Z,100920.91
2023-08-11T03:24:00.916Z,100912.78
2023-08-11T03:24:32.814Z,100915.88
2023-08-11T03:25:05.176Z,100921.13
2023-08-11T03:25:37.361Z,100924.22
2023-08-11T03:26:10.721Z,100922.34
2023-08-11T03:26:42.757Z,100923.19
2023-08-11T03:27:16.333Z,100926.50
2023-08-11T03:27:48.264Z,100915.81
2023-08-11T03:28:20.191Z,100920.22
2023-08-11T03:28:52.125Z,100926.28
2023-08-11T03:29:24.038Z,100919.19
2023-08-11T03:29:55.959Z,100923.97
2023-08-11T03:30:27.867Z,100925.66
2023-08-11T03:31:00.921Z,100928.38
2023-08-11T03:31:33.741Z,100921.81
2023-08-11T03:32:06.430Z,100923.69
2023-08-11T03:32:41.902Z,100928.06
2023-08-11T03:33:16.172Z,100928.06
2023-08-11T03:33:50.274Z,100932.47
2023-08-11T03:34:22.188Z,100934.53
2023-08-11T03:34:54.585Z,100927.44
2023-08-11T03:35:26.511Z,100930.16
2023-08-11T03:35:58.659Z,100929.94
2023-08-11T03:36:30.841Z,100926.19
2023-08-11T03:37:02.904Z,100928.66
2023-08-11T03:37:35.685Z,100930.53
2023-08-11T03:38:07.636Z,100934.53
2023-08-11T03:38:39.687Z,100931.19
2023-08-11T03:39:11.629Z,100929.50
2023-08-11T03:39:43.548Z,100922.84
2023-08-11T03:40:18.097Z,100931.19
2023-08-11T03:40:50.188Z,100929.31
2023-08-11T03:41:22.100Z,100935.38
2023-08-11T03:41:54.073Z,100931.63
2023-08-11T03:42:26.028Z,100930.44
2023-08-11T03:42:58.020Z,100932.94
2023-08-11T03:43:29.933Z,100932.56
2023-08-11T03:44:02.130Z,100931.72
2023-08-11T03:44:34.461Z,100937.53
2023-08-11T03:45:06.850Z,100936.22
2023-08-11T03:45:38.842Z,100940.81
2023-08-11T03:46:11.036Z,100944.84
2023-08-11T03:46:43.000Z,100940.25
2023-08-11T03:47:14.957Z,100936.69
2023-08-11T03:47:46.964Z,100938.75
2023-08-11T03:48:18.940Z,100930.34
2023-08-11T03:48:50.942Z,100934.09
2023-08-11T03:49:22.860Z,100930.78
2023-08-11T03:49:54.786Z,100937.25
2023-08-11T03:50:26.690Z,100932.47
2023-08-11T03:51:02.445Z,100942.13
2023-08-11T03:51:34.413Z,100932.13
2023-08-11T03:52:07.068Z,100936.69
2023-08-11T03:52:39.763Z,100939.22
2023-08-11T03:53:11.684Z,100940.91
2023-08-11T03:53:43.659Z,100941.28
2023-08-11T03:54:15.591Z,100933.31
2023-08-11T03:54:47.516Z,100939.41
2023-08-11T03:55:19.525Z,100944.84
2023-08-11T03:55:51.438Z,100935.38
2023-08-11T03:56:23.436Z,100938.28
2023-08-11T03:56:55.979Z,100945.00
2023-08-11T03:57:27.901Z,100940.44
2023-08-11T03:57:59.828Z,100945.41
2023-08-11T03:58:32.153Z,100938.28
2023-08-11T03:59:04.059Z,100941.84
2023-08-11T03:59:36.181Z,100945.41
2023-08-11T04:00:15.504Z,100948.94
2023-08-11T04:00:47.539Z,100938.56
2023-08-11T04:01:19.506Z,100945.94
2023-08-11T04:01:51.520Z,100942.84
2023-08-11T04:02:25.242Z,100945.09
2023-08-11T04:02:57.186Z,100942.59
2023-08-11T04:03:32.432Z,100951.38
2023-08-11T04:04:04.537Z,100941.75
2023-08-11T04:04:36.463Z,100940.72
2023-08-11T04:05:08.578Z,100942.78
2023-08-11T04:05:40.534Z,100938.84
2023-08-11T04:06:12.452Z,100950.72
2023-08-11T04:06:44.471Z,100944.66
2023-08-11T04:07:16.377Z,100949.25
2023-08-11T04:07:48.284Z,100948.59
2023-08-11T04:08:21.969Z,100954.09
2023-08-11T04:08:53.909Z,100952.41
2023-08-11T04:09:26.369Z,100946.34
2023-08-11T04:09:59.501Z,100958.50
2023-08-11T04:10:31.914Z,100948.91
2023-08-11T04:11:03.840Z,100951.00
2023-08-11T04:11:35.778Z,100956.41
2023-08-11T04:12:11.050Z,100946.78
2023-08-11T04:12:43.153Z,100957.25
2023-08-11T04:13:15.080Z,100953.13
2023-08-11T04:13:47.037Z,100950.59
2023-08-11T04:14:18.944Z,100949.50
2023-08-11T04:14:50.855Z,100951.38
2023-08-11T04:15:22.786Z,100955.78
2023-08-11T04:15:54.705Z,100957.47
2023-08-11T04:16:26.692Z,100956.34
2023-08-11T04:16:58.661Z,100952.41
2023-08-11T04:17:30.776Z,100956.16
2023-08-11T04:18:02.747Z,100958.50
2023-08-11T04:18:34.709Z,100957.47
2023-08-11T04:19:06.624Z,100953.72
2023-08-11T04:19:38.580Z,100963.34
2023-08-11T04:20:14.937Z,100962.50
2023-08-11T04:20:48.078Z,100958.28
2023-08-11T04:21:19.964Z,100961.41
2023-08-11T04:21:51.868Z,100964.75
2023-08-11T04:22:38.064Z,100958.50
2023-08-11T04:23:11.145Z,100962.88
2023-08-11T04:23:43.075Z,100960.81
2023-08-11T04:24:16.495Z,100964.38
2023-08-11T04:24:48.398Z,100961.84
2023-08-11T04:25:20.300Z,100966.25
2023-08-11T04:25:52.746Z,100970.00
2023-08-11T04:26:24.662Z,100969.16
2023-08-11T04:26:57.110Z,100968.13
2023-08-11T04:27:30.045Z,100962.50
2023-08-11T04:28:03.605Z,100971.50
2023-08-11T04:28:37.522Z,100974.00
2023-08-11T04:29:09.425Z,100976.53
2023-08-11T04:29:41.320Z,100972.31
2023-08-11T04:30:13.888Z,100969.41
2023-08-11T04:30:48.963Z,100968.59
2023-08-11T04:31:20.936Z,100971.56
2023-08-11T04:31:53.209Z,100964.44
2023-08-11T04:32:25.121Z,100973.63
2023-08-11T04:32:57.093Z,100972.59
2023-08-11T04:33:31.275Z,100970.53
2023-08-11T04:34:06.464Z,100969.50
2023-08-11T04:34:38.921Z,100970.34
2023-08-11T04:35:11.072Z,100964.09
2023-08-11T04:35:43.025Z,100973.53
2023-08-11T04:36:14.936Z,100969.97
2023-08-11T04:36:47.490Z,100972.69
2023-08-11T04:37:19.759Z,100969.78
2023-08-11T04:37:51.737Z,100969.78
2023-08-11T04:38:23.764Z,100967.06
2023-08-11T04:38:56.651Z,100975.84
2023-08-11T04:39:28.624Z,100972.34
2023-08-11T04:40:00.691Z,100976.75
2023-08-11T04:40:32.905Z,100978.63
2023-08-11T04:41:04.813Z,100966.75
2023-08-11T04:41:38.147Z,100974.53
2023-08-11T04:42:10.227Z,100979.78
2023-08-11T04:42:42.498Z,100979.78
2023-08-11T04:43:14.487Z,100970.59
2023-08-11T04:43:46.441Z,100976.47
2023-08-11T04:44:18.393Z,100981.06
2023-08-11T04:44:50.329Z,100986.13
2023-08-11T04:45:23.284Z,100979.63
2023-08-11T04:45:55.791Z,100977.56
2023-08-11T04:46:28.267Z,100977.56
2023-08-11T04:47:00.481Z,100981.75
2023-08-11T04:47:32.491Z,100987.84
2023-08-11T04:48:04.686Z,100987.66
2023-08-11T04:48:36.980Z,100985.78
2023-08-11T04:49:08.948Z,100987.94
2023-08-11T04:49:40.867Z,100991.75
2023-08-11T04:50:13.214Z,100988.19
2023-08-11T04:50:52.457Z,100988.81
2023-08-11T04:51:24.368Z,100993.63
2023-08-11T04:51:56.274Z,100989.88
2023-08-11T04:52:28.474Z,100995.75
2023-08-11T04:53:00.454Z,100988.44
2023-08-11T04:53:32.459Z,100991.78
2023-08-11T04:54:04.632Z,100996.00
2023-08-11T04:54:36.528Z,100989.72
2023-08-11T04:55:09.039Z,100995.81
2023-08-11T04:55:41.192Z,100990.63
2023-08-11T04:56:13.484Z,100991.47
2023-08-11T04:56:45.392Z,100994.38
2023-08-11T04:57:17.321Z,100987.91
2023-08-11T04:57:49.523Z,100986.88
2023-08-11T04:58:21.446Z,100999.03
2023-08-11T04:58:54.858Z,100998.41
2023-08-11T04:59:26.785Z,100998.00
2023-08-11T04:59:58.690Z,100998.84
2023-08-11T05:00:30.842Z,100993.84
2023-08-11T05:01:05.104Z,100986.53
2023-08-11T05:01:37.054Z,100995.31
2023-08-11T05:02:09.377Z,101001.44
2023-08-11T05:02:43.248Z,101006.69
2023-08-11T05:03:15.382Z,100998.13
2023-08-11T05:03:47.375Z,100996.88
2023-08-11T05:04:19.367Z,100998.34
2023-08-11T05:04:51.427Z,100997.13
2023-08-11T05:05:23.360Z,100994.19
2023-08-11T05:05:55.330Z,101002.34
2023-08-11T05:06:27.280Z,101008.63
2023-08-11T05:06:59.180Z,101001.31
2023-08-11T05:07:31.137Z,101011.16
2023-08-11T05:08:03.476Z,101002.63
2023-08-11T05:08:35.387Z,101001.19
2023-08-11T05:09:07.550Z,101002.03
2023-08-11T05:09:39.605Z,101002.88
2023-08-11T05:10:13.603Z,101002.47
2023-08-11T05:10:45.532Z,101003.50
2023-08-11T05:11:17.460Z,101012.31
2023-08-11T05:11:49.385Z,101003.31
2023-08-11T05:12:21.295Z,101013.38
2023-08-11T05:12:53.189Z,101007.53
2023-08-11T05:13:25.154Z,101014.50
2023-08-11T05:13:57.225Z,101011.97
2023-08-11T05:14:29.136Z,101016.38
2023-08-11T05:15:01.049Z,101011.56
2023-08-11T05:15:32.959Z,101013.47
2023-08-11T05:16:05.034Z,101016.63
2023-08-11T05:16:37.061Z,101015.16
2023-08-11T05:17:09.401Z,101008.69
2023-08-11T05:17:41.516Z,101011.19
2023-08-11T05:18:13.504Z,101023.13
2023-08-11T05:18:45.427Z,101020.00
2023-08-11T05:19:17.343Z,101013.19
2023-08-11T05:19:49.292Z,101015.50
2023-08-11T05:20:22.789Z,101015.28
2023-08-11T05:20:54.717Z,101016.13
2023-08-11T05:21:26.684Z,101016.78
2023-08-11T05:21:58.756Z,101018.44
2023-08-11T05:22:30.697Z,101016.16
2023-08-11T05:23:02.778Z,101013.00
2023-08-11T05:23:34.734Z,101018.88
2023-08-11T05:24:07.898Z,101018.47
2023-08-11T05:24:41.696Z,101019.94
2023-08-11T05:25:13.606Z,101019.75
2023-08-11T05:25:46.059Z,101025.19
2023-08-11T05:26:18.868Z,101025.03
2023-08-11T05:26:50.842Z,101021.47
2023-08-11T05:27:22.767Z,101022.94
2023-08-11T05:27:54.675Z,101017.28
2023-08-11T05:28:26.579Z,101017.91
2023-08-11T05:28:58.564Z,101018.75
2023-08-11T05:29:30.483Z,101022.97
2023-08-11T05:30:02.548Z,101015.63
2023-08-11T05:30:34.458Z,101018.16
2023-08-11T05:31:07.265Z,101020.66
2023-08-11T05:31:39.260Z,101019.41
2023-08-11T05:32:11.607Z,101022.97
2023-08-11T05:32:44.025Z,101012.34
2023-08-11T05:33:16.033Z,101013.19
2023-08-11T05:33:47.946Z,101016.53
2023-08-11T05:34:19.862Z,101018.00
2023-08-11T05:34:52.957Z,101019.50
2023-08-11T05:35:25.440Z,101017.41
2023-08-11T05:35:57.644Z,101016.56
2023-08-11T05:36:29.650Z,101018.88
2023-08-11T05:37:01.575Z,101022.22
2023-08-11T05:37:33.926Z,101024.53
2023-08-11T05:38:06.523Z,101023.47
2023-08-11T05:38:39.594Z,101022.84
2023-08-11T05:39:11.978Z,101022.03
2023-08-11T05:39:43.997Z,101030.88
2023-08-11T05:40:17.493Z,101031.69
2023-08-11T05:40:50.097Z,101029.84
2023-08-11T05:41:22.086Z,101030.03
2023-08-11T05:41:54.569Z,101028.56
2023-08-11T05:42:26.508Z,101026.47
2023-08-11T05:42:58.463Z,101023.75
2023-08-11T05:43:30.843Z,101029.63
2023-08-11T05:44:02.832Z,101031.31
2023-08-11T05:44:34.901Z,101025.47
2023-08-11T05:45:08.992Z,101027.38
2023-08-11T05:45:40.967Z,101027.38
2023-08-11T05:46:12.903Z,101018.97
2023-08-11T05:46:44.841Z,101029.03
2023-08-11T05:47:16.827Z,101028.84
2023-08-11T05:47:48.828Z,101020.44
2023-08-11T05:48:20.824Z,101025.69
2023-08-11T05:48:52.726Z,101021.72
2023-08-11T05:49:24.663Z,101026.31
2023-08-11T05:49:56.646Z,101024.88
2023-08-11T05:50:28.556Z,101026.53
2023-08-11T05:51:00.462Z,101022.97
2023-08-11T05:51:32.364Z,101017.31
2023-08-11T05:52:04.651Z,101020.88
2023-08-11T05:52:36.634Z,101020.88
2023-08-11T05:53:08.618Z,101024.03
2023-08-11T05:53:41.043Z,101025.53
2023-08-11T05:54:13.008Z,101028.69
2023-08-11T05:54:44.910Z,101018.81
2023-08-11T05:55:16.885Z,101020.50
2023-08-11T05:55:48.821Z,101023.84
2023-08-11T05:56:20.768Z,101027.63
2023-08-11T05:56:54.229Z,101022.63
2023-08-11T05:57:26.299Z,101022.00
2023-08-11T05:57:58.306Z,101020.97
2023-08-11T05:58:30.224Z,101018.84
2023-08-11T05:59:02.745Z,101016.78
2023-08-11T05:59:34.658Z,101022.66
2023-08-11T06:00:07.793Z,101027.06
2023-08-11T06:00:39.725Z,101026.03
2023-08-11T06:01:11.674Z,101022.03
2023-08-11T06:01:43.611Z,101027.50
2023-08-11T06:02:15.770Z,101022.25
2023-08-11T06:02:47.695Z,101027.28
2023-08-11T06:03:19.707Z,101029.63
2023-08-11T06:03:52.031Z,101028.75
2023-08-11T06:04:24.009Z,101029.63
2023-08-11T06:04:55.927Z,101028.56
2023-08-11T06:05:28.210Z,101030.25
2023-08-11T06:06:05.610Z,101023.53
2023-08-11T06:06:38.126Z,101035.06
2023-08-11T06:07:10.366Z,101034.00
2023-08-11T06:07:49.251Z,101034.44
2023-08-11T06:08:29.252Z,101027.91
2023-08-11T06:09:01.171Z,101028.13
2023-08-11T06:09:33.610Z,101029.59
2023-08-11T06:10:05.979Z,101035.69
2023-08-11T06:10:37.950Z,101029.81
2023-08-11T06:11:09.929Z,101028.34
2023-08-11T06:11:41.876Z,101033.59
2023-08-11T06:12:13.796Z,101038.63
2023-08-11T06:12:45.758Z,101031.28
2023-08-11T06:13:17.668Z,101039.88
2023-08-11T06:13:49.583Z,101033.16
2023-08-11T06:14:21.938Z,101040.94
2023-08-11T06:14:53.860Z,101038.19
2023-08-11T06:15:25.824Z,101042.41
2023-08-11T06:15:57.794Z,101038.63